Time;durP1;ratioP1;P1;durP2;ratioP2;P2;SDS_P1;SDS_P2;PMS_P1;PMS_P2;Temp;Humidity;BMP_temperature;BMP_pressure;BME280_temperature;BME280_humidity;BME280_pressure;Samples;Min_cycle;Max_cycle;Signal;HPM_P1;HPM_P2
2022/06/21 00:02:01;;;;;;;8.50;5.00;;;;;;;;;;4967404;28;20126;-75
2022/06/21 00:04:27;;;;;;;9.93;4.38;;;;;;;11.45;88.66;68048.06;4968252;28;20134;-76
2022/06/21 00:06:52;;;;;;;8.40;5.38;;;;;;;11.36;89.30;68035.72;4967435;28;20054;-76
2022/06/21 00:09:18;;;;;;;9.32;4.82;;;;;;;11.38;89.41;68038.00;4970009;28;20043;-76
2022/06/21 00:11:44;;;;;;;7.97;4.90;;;;;;;11.33;89.61;68032.31;4967356;28;20035;-75
2022/06/21 00:14:09;;;;;;;7.97;5.00;;;;;;;11.29;89.55;68027.78;4968464;28;20046;-76
2022/06/21 00:16:35;;;;;;;7.68;4.43;;;;;;;;;;4975905;28;20046;-77
2022/06/21 00:19:02;;;;;;;8.13;4.35;;;;;;;;;;4968970;28;20113;-77
2022/06/21 00:21:33;;;;;;;10.40;4.32;;;;;;;11.31;89.38;68030.06;4986936;28;20046;-77
2022/06/21 00:23:58;;;;;;;8.77;4.90;;;;;;;11.16;89.92;68013.03;4968850;28;20066;-76
2022/06/21 00:26:26;;;;;;;8.40;5.28;;;;;;;11.12;90.54;68009.06;4965634;28;20078;-76
2022/06/21 00:28:52;;;;;;;7.28;4.60;;;;;;;11.12;90.82;68009.06;4970260;28;20057;-76
2022/06/21 00:31:25;;;;;;;9.27;5.00;;;;;;;11.11;90.40;68007.38;4963580;28;20498;-78
2022/06/21 00:33:51;;;;;;;8.73;4.60;;;;;;;11.08;90.07;68004.53;4968691;28;20031;-78
2022/06/21 00:36:30;;;;;;;7.25;4.68;;;;;;;10.95;90.61;67992.97;4981937;28;20100;-76
2022/06/21 00:38:57;;;;;;;10.48;5.18;;;;;;;;;;4987039;28;20124;-77
2022/06/21 00:41:40;;;;;;;7.88;4.60;;;;;;;10.83;91.36;67976.72;4957650;28;20051;-76
2022/06/21 00:44:11;;;;;;;8.50;5.22;;;;;;;10.76;91.83;67972.00;4982872;28;20030;-77
2022/06/21 00:46:42;;;;;;;8.32;5.32;;;;;;;10.72;92.24;67964.78;4986279;28;20069;-77
2022/06/21 00:49:29;;;;;;;9.90;5.90;;;;;;;10.65;92.78;67962.16;4987769;28;20791;-76
2022/06/21 00:52:20;;;;;;;7.53;4.60;;;;;;;10.62;92.34;67961.44;4986674;28;20042;-76
2022/06/21 00:54:54;;;;;;;9.23;5.70;;;;;;;10.56;92.40;67947.19;4987029;28;20030;-76
2022/06/21 00:57:23;;;;;;;11.13;5.65;;;;;;;10.51;92.91;67943.63;4970888;28;20417;-76
2022/06/21 00:59:51;;;;;;;9.65;5.55;;;;;;;10.42;93.32;67930.75;4987671;28;20394;-76
2022/06/21 01:02:35;;;;;;;9.75;5.80;;;;;;;10.35;93.88;67929.25;4985534;28;20050;-76
2022/06/21 01:05:03;;;;;;;9.15;5.80;;;;;;;10.35;94.39;67923.38;4986497;28;20039;-76
2022/06/21 01:07:28;;;;;;;10.70;6.13;;;;;;;10.32;93.57;67922.63;4986759;28;20037;-76
2022/06/21 01:10:08;;;;;;;12.95;5.65;;;;;;;10.24;94.20;67916.19;4984821;28;20729;-76
2022/06/21 01:12:44;;;;;;;7.85;5.55;;;;;;;10.19;94.60;67905.19;4986360;28;20041;-76
2022/06/21 01:15:17;;;;;;;13.27;5.65;;;;;;;10.13;94.29;67899.53;4987428;28;20080;-77
2022/06/21 01:17:44;;;;;;;10.05;6.18;;;;;;;10.11;93.96;67897.25;5004527;28;20041;-76
2022/06/21 01:20:14;;;;;;;9.23;6.32;;;;;;;10.07;94.39;67895.38;4987678;28;20544;-77
2022/06/21 01:22:55;;;;;;;7.90;5.63;;;;;;;10.08;94.17;67895.94;4978426;28;20100;-76
2022/06/21 01:25:42;;;;;;;9.75;5.43;;;;;;;10.02;94.22;67886.47;4972943;28;20055;-76
2022/06/21 01:28:09;;;;;;;8.15;5.10;;;;;;;9.99;94.20;67883.66;4985761;28;20661;-78
2022/06/21 01:30:34;;;;;;;8.18;5.28;;;;;;;;;;4984230;28;20049;-76
2022/06/21 01:33:02;;;;;;;7.57;4.80;;;;;;;9.97;93.79;67881.38;4987134;28;20133;-77
2022/06/21 01:35:33;;;;;;;7.20;5.30;;;;;;;9.93;93.94;67879.50;4998778;28;20121;-76
2022/06/21 01:38:00;;;;;;;7.00;5.35;;;;;;;9.86;93.87;67874.22;4999391;28;20082;-76
2022/06/21 01:40:33;;;;;;;10.57;5.68;;;;;;;9.82;93.96;67869.69;4988291;28;20498;-76
2022/06/21 01:43:03;;;;;;;9.07;5.68;;;;;;;9.83;94.22;67865.50;4982014;28;20401;-76
2022/06/21 01:45:53;;;;;;;7.50;5.57;;;;;;;9.77;94.20;67861.91;4983026;28;20042;-78
2022/06/21 01:48:28;;;;;;;9.32;5.63;;;;;;;9.68;94.18;67849.63;4984237;28;20105;-77
2022/06/21 01:50:59;;;;;;;8.88;5.88;;;;;;;9.58;94.81;67840.94;4985619;28;20125;-76
2022/06/21 01:53:26;;;;;;;9.10;5.95;;;;;;;9.64;95.53;67850.41;4969627;28;20053;-77
2022/06/21 01:55:56;;;;;;;11.20;6.28;;;;;;;9.53;95.40;67832.63;4984598;28;20034;-75
2022/06/21 01:58:26;;;;;;;9.20;6.30;;;;;;;9.53;95.90;67837.38;4987179;28;20046;-75
2022/06/21 02:01:15;;;;;;;10.25;5.78;;;;;;;9.45;95.38;67834.16;4990130;28;20048;-77
2022/06/21 02:03:43;;;;;;;10.60;6.28;;;;;;;9.36;96.34;67818.66;4979225;28;20054;-77
2022/06/21 02:06:14;;;;;;;9.05;6.75;;;;;;;9.34;96.76;67813.72;4974522;28;20433;-76
2022/06/21 02:08:48;;;;;;;10.85;7.18;;;;;;;9.23;97.11;67799.72;4968651;28;20490;-76
2022/06/21 02:11:22;;;;;;;10.20;6.85;;;;;;;9.19;97.08;67795.19;4969994;28;20058;-76
2022/06/21 02:14:28;;;;;;;9.30;7.22;;;;;;;9.16;97.21;67791.78;4986837;28;20042;-77
2022/06/21 02:16:41;;;;;;;11.23;7.43;;;;;;;9.12;97.06;67789.34;4985916;28;20114;-76
2022/06/21 02:19:13;;;;;;;11.80;7.22;;;;;;;9.07;97.17;67781.59;4991144;28;20426;-77
2022/06/21 02:21:41;;;;;;;11.02;7.55;;;;;;;9.09;97.24;67783.88;4964739;28;20041;-76
2022/06/21 02:24:12;;;;;;;12.45;7.50;;;;;;;9.05;97.09;67784.63;4963175;28;20059;-77
2022/06/21 02:26:38;;;;;;;10.40;7.03;;;;;;;9.04;97.05;67784.06;4981202;28;20047;-77
2022/06/21 02:29:04;;;;;;;10.85;6.85;;;;;;;9.03;96.43;67782.38;4984728;28;20030;-76
2022/06/21 02:31:29;;;;;;;9.27;7.00;;;;;;;9.00;96.40;67779.53;4985822;28;20035;-76
2022/06/21 02:33:59;;;;;;;12.25;7.00;;;;;;;8.99;96.34;67777.84;4967993;28;20042;-76
2022/06/21 02:36:31;;;;;;;8.77;6.90;;;;;;;8.94;96.50;67772.16;4968358;28;20490;-77
2022/06/21 02:38:57;;;;;;;9.63;6.95;;;;;;;;;;4984298;28;20582;-77
2022/06/21 02:41:32;;;;;;;9.38;7.03;;;;;;;8.82;96.82;67754.38;4967509;28;20038;-77
2022/06/21 02:44:06;;;;;;;10.32;7.10;;;;;;;8.85;96.61;67759.31;4983867;28;20110;-76
2022/06/21 02:46:37;;;;;;;10.27;7.53;;;;;;;8.78;97.13;67757.81;4985889;28;20038;-76
2022/06/21 02:49:13;;;;;;;12.38;8.10;;;;;;;8.77;96.70;67756.13;4992729;28;20041;-77
2022/06/21 02:52:12;;;;;;;10.80;7.53;;;;;;;8.78;96.78;67755.19;5005233;28;20124;-76
2022/06/21 02:55:13;;;;;;;10.73;7.88;;;;;;;8.72;97.18;67743.06;4979603;28;20053;-76
2022/06/21 02:57:44;;;;;;;13.85;8.27;;;;;;;8.63;97.58;67738.19;4955940;28;20502;-76
2022/06/21 03:00:15;;;;;;;13.07;8.13;;;;;;;8.59;97.68;67733.63;4983395;28;20038;-77
2022/06/21 03:02:40;;;;;;;13.30;8.57;;;;;;;8.56;97.95;67728.16;4985193;28;20054;-77
2022/06/21 03:05:13;;;;;;;13.80;8.93;;;;;;;8.56;98.11;67724.94;4981925;28;20046;-77
2022/06/21 03:07:42;;;;;;;13.07;8.70;;;;;;;8.57;98.38;67731.94;4984956;28;20069;-76
2022/06/21 03:10:16;;;;;;;10.65;8.38;;;;;;;8.58;98.17;67727.78;4986519;28;20042;-76
2022/06/21 03:12:42;;;;;;;15.02;8.50;;;;;;;8.61;98.30;67730.03;4984482;28;20038;-78
2022/06/21 03:15:10;;;;;;;11.52;8.00;;;;;;;8.63;97.62;67738.19;4966367;28;20046;-75
2022/06/21 03:17:47;;;;;;;10.00;7.78;;;;;;;8.63;97.36;67734.94;4964282;28;20046;-76
2022/06/21 03:20:16;;;;;;;10.23;8.07;;;;;;;8.61;97.45;67730.03;4987528;28;20053;-76
2022/06/21 03:22:42;;;;;;;9.80;8.07;;;;;;;8.60;97.33;67729.47;4965972;28;20116;-76
2022/06/21 03:25:19;;;;;;;10.15;7.90;;;;;;;8.55;96.68;67726.47;4983909;28;20046;-76
2022/06/21 03:27:53;;;;;;;10.60;7.78;;;;;;;8.55;97.24;67729.13;4985271;28;20096;-76
2022/06/21 03:30:22;;;;;;;11.63;8.32;;;;;;;8.55;97.61;67724.38;4984263;28;20039;-77
2022/06/21 03:32:49;;;;;;;11.67;8.77;;;;;;;8.50;97.57;67718.72;4965157;28;20126;-76
2022/06/21 03:35:15;;;;;;;13.40;8.38;;;;;;;8.51;98.00;67719.25;4986157;28;20117;-78
2022/06/21 03:37:42;;;;;;;13.07;8.68;;;;;;;8.53;97.83;67724.19;4984840;28;20050;-76
2022/06/21 03:42:59;;;;;;;11.63;9.27;;;;;;;8.43;98.36;67710.78;4994155;28;20113;-76
2022/06/21 03:45:34;;;;;;;12.60;9.13;;;;;;;8.45;98.56;67712.47;4984491;28;20049;-76
2022/06/21 03:48:20;;;;;;;12.40;9.63;;;;;;;8.54;98.67;67725.31;4974471;28;20039;-77
2022/06/21 03:50:55;;;;;;;11.85;8.95;;;;;;;8.53;98.43;67724.75;4969356;28;20066;-76
2022/06/21 03:53:40;;;;;;;10.82;8.65;;;;;;;8.54;97.77;67727.97;4969718;28;20038;-76
2022/06/21 03:56:13;;;;;;;12.20;9.13;;;;;;;8.53;97.96;67722.09;4988438;28;20497;-76
2022/06/21 03:59:04;;;;;;;11.40;9.50;;;;;;;8.55;98.62;67726.47;4963554;28;20051;-76
2022/06/21 04:02:05;;;;;;;13.65;10.88;;;;;;;8.55;98.59;67727.03;4960089;28;20059;-75
2022/06/21 04:04:46;;;;;;;14.65;9.98;;;;;;;8.58;98.52;67732.50;4950771;28;20047;-77
2022/06/21 04:07:28;;;;;;;15.32;10.38;;;;;;;8.59;98.77;67734.19;4964018;28;20085;-77
2022/06/21 04:10:12;;;;;;;16.73;10.68;;;;;;;8.60;99.49;67729.47;4986088;28;20042;-77
2022/06/21 04:12:51;;;;;;;13.55;10.80;;;;;;;8.64;99.72;67736.09;4979577;28;20468;-76
2022/06/21 04:15:24;;;;;;;15.85;10.98;;;;;;;8.71;99.54;67744.00;4970479;28;20046;-76
2022/06/21 04:17:58;;;;;;;15.32;10.70;;;;;;;8.72;99.97;67743.06;4980587;28;20479;-77
2022/06/21 04:20:34;;;;;;;13.60;9.13;;;;;;;8.78;99.58;67757.81;4971012;28;20038;-77
2022/06/21 04:23:12;;;;;;;16.95;10.05;;;;;;;8.88;99.31;67765.94;4985944;28;20493;-76
2022/06/21 04:25:41;;;;;;;12.27;9.57;;;;;;;8.93;98.62;67765.72;4981861;28;20155;-76
2022/06/21 04:28:58;;;;;;;12.95;10.38;;;;;;;9.02;99.06;67775.94;4980846;28;20528;-76
2022/06/21 04:31:37;;;;;;;14.27;10.38;;;;;;;9.07;99.61;67786.91;4953745;28;20042;-76
2022/06/21 04:34:14;;;;;;;13.57;10.77;;;;;;;9.15;98.91;67790.66;4989846;28;20051;-76
2022/06/21 04:36:50;;;;;;;15.15;10.60;;;;;;;9.25;98.22;67801.44;4987732;28;20050;-78
2022/06/21 04:39:35;;;;;;;13.55;11.15;;;;;;;9.30;98.52;67807.09;4972055;28;20050;-76
2022/06/21 04:42:12;;;;;;;13.18;11.05;;;;;;;9.30;99.77;67806.53;5004363;28;20042;-77
2022/06/21 04:45:01;;;;;;;15.38;11.52;;;;;;;9.41;99.72;67819.56;4981039;28;20046;-77
2022/06/21 04:47:34;;;;;;;14.07;11.23;;;;;;;9.49;100.00;67830.72;4971250;28;20046;-76
2022/06/21 04:50:28;;;;;;;15.52;11.05;;;;;;;9.57;99.82;67839.22;4994160;28;20041;-76
2022/06/21 04:53:00;;;;;;;15.57;10.35;;;;;;;9.65;99.42;67848.31;4981278;28;20129;-76
2022/06/21 04:55:37;;;;;;;15.13;10.45;;;;;;;9.77;99.27;67861.34;4967775;28;20503;-76
2022/06/21 04:58:03;;;;;;;15.82;10.60;;;;;;;9.80;99.49;67862.09;4974206;28;20105;-77
2022/06/21 05:00:28;;;;;;;15.13;10.98;;;;;;;9.92;99.42;67875.69;4987400;28;20050;-76
2022/06/21 05:03:08;;;;;;;14.93;10.77;;;;;;;10.07;99.13;67895.38;4987159;28;20039;-76
2022/06/21 05:05:37;;;;;;;13.55;10.38;;;;;;;10.18;98.76;67904.63;4984391;28;20038;-76
2022/06/21 05:08:14;;;;;;;15.25;11.02;;;;;;;10.29;98.87;67921.88;4966447;28;20125;-76
2022/06/21 05:10:43;;;;;;;18.75;11.57;;;;;;;10.43;98.52;67931.88;4982484;28;20039;-76
2022/06/21 05:13:49;;;;;;;17.52;11.38;;;;;;;10.62;98.32;67958.78;4981671;28;20053;-75
2022/06/21 05:16:21;;;;;;;13.88;9.77;;;;;;;10.75;98.11;67968.19;4966015;28;20043;-77
2022/06/21 05:18:57;;;;;;;13.07;10.52;;;;;;;10.90;98.18;67984.63;4999846;28;20053;-75
2022/06/21 05:22:09;;;;;;;14.32;9.70;;;;;;;11.00;97.62;67996.00;5003647;28;20049;-75
2022/06/21 05:24:35;;;;;;;13.90;9.10;;;;;;;11.11;98.12;68010.59;4985159;28;20121;-79
2022/06/21 05:27:06;;;;;;;13.23;8.50;;;;;;;11.29;97.50;68027.78;5021079;22;20077;-85
2022/06/21 05:29:41;;;;;;;12.55;7.70;;;;;;;11.45;96.68;68045.38;5000179;28;20038;-85
2022/06/21 05:32:15;;;;;;;12.43;7.30;;;;;;;11.60;97.50;68062.44;5006118;28;20620;-85
2022/06/21 05:34:46;;;;;;;13.43;6.90;;;;;;;11.72;97.19;68076.06;4991551;28;20469;-85
2022/06/21 05:37:18;;;;;;;12.50;6.63;;;;;;;11.86;97.09;68094.09;4944490;28;20043;-85
2022/06/21 05:39:48;;;;;;;15.18;6.45;;;;;;;12.02;96.56;68108.44;4965018;28;20588;-86
2022/06/21 05:42:16;;;;;;;11.60;5.40;;;;;;;12.12;95.48;68125.16;4957890;28;20051;-85
2022/06/21 05:44:49;;;;;;;15.77;5.63;;;;;;;12.24;95.18;68136.13;4967201;28;20061;-85
2022/06/21 05:47:17;;;;;;;10.30;5.13;;;;;;;12.37;94.39;68148.25;4951882;28;20133;-85
2022/06/21 05:49:43;;;;;;;9.03;5.13;;;;;;;12.51;93.78;68163.00;4951231;28;20047;-85
2022/06/21 05:52:16;;;;;;;11.13;4.72;;;;;;;12.62;93.38;68175.50;4962651;28;20730;-86
2022/06/21 05:54:44;;;;;;;14.10;4.55;;;;;;;;;;4951166;28;20490;-86
2022/06/21 05:57:13;;;;;;;7.47;3.92;;;;;;;;;;4986233;28;20050;-86
2022/06/21 05:59:39;;;;;;;12.27;4.15;;;;;;;12.92;91.40;68209.06;5002393;28;20046;-86
2022/06/21 06:02:23;;;;;;;8.27;4.15;;;;;;;;;;4985934;28;20101;-86
2022/06/21 06:05:03;;;;;;;9.60;3.95;;;;;;;13.13;91.65;68232.34;4987335;28;20070;-86
2022/06/21 06:07:35;;;;;;;11.00;3.85;;;;;;;13.29;90.76;68250.00;4986956;28;20047;-86
2022/06/21 06:10:04;;;;;;;7.85;3.13;;;;;;;13.35;89.64;68256.84;4950651;28;20042;-86
2022/06/21 06:12:46;;;;;;;11.10;4.28;;;;;;;13.47;88.51;68269.91;4981062;28;20453;-86
2022/06/21 06:15:23;;;;;;;9.23;3.70;;;;;;;13.54;89.27;68278.44;4978722;28;20051;-87
2022/06/21 06:17:59;;;;;;;11.38;3.97;;;;;;;13.60;88.48;68284.69;4983928;28;20430;-86
2022/06/21 06:20:33;;;;;;;7.40;3.67;;;;;;;;;;4971841;28;20050;-86
2022/06/21 06:23:08;;;;;;;7.57;3.97;;;;;;;;;;4963937;28;20130;-86
2022/06/21 06:25:50;;;;;;;6.20;3.92;;;;;;;13.89;87.79;68321.91;4962476;28;20124;-86
2022/06/21 06:28:22;;;;;;;8.90;2.58;;;;;;;;;;4957348;28;20039;-86
2022/06/21 06:31:06;;;;;;;7.72;2.60;;;;;;;14.19;85.30;68350.69;4986796;28;20125;-86
2022/06/21 06:33:37;;;;;;;8.02;2.67;;;;;;;14.29;83.77;68355.59;4968214;28;20077;-86
2022/06/21 06:36:10;;;;;;;7.55;2.83;;;;;;;14.31;83.61;68363.22;4973210;28;20093;-86
2022/06/21 06:38:36;;;;;;;8.43;2.67;;;;;;;;;;4961822;28;20085;-86
2022/06/21 06:41:08;;;;;;;6.95;2.30;;;;;;;;;;4966379;28;20046;-86
2022/06/21 06:43:52;;;;;;;4.93;1.95;;;;;;;14.47;82.93;68383.53;4959271;28;20039;-86
2022/06/21 06:46:28;;;;;;;8.88;2.28;;;;;;;;;;4967444;28;20057;-86
2022/06/21 06:49:07;;;;;;;9.73;2.17;;;;;;;14.63;81.60;68399.09;4998496;28;20042;-86
2022/06/21 06:51:43;;;;;;;8.05;2.20;;;;;;;14.71;81.10;68407.66;4985034;28;20093;-87
2022/06/21 06:54:19;;;;;;;4.72;1.70;;;;;;;;;;4968228;28;20506;-87
2022/06/21 06:56:57;;;;;;;6.65;2.40;;;;;;;;;;4934471;28;20146;-86
2022/06/21 06:59:25;;;;;;;7.13;2.03;;;;;;;14.95;78.22;68437.63;4961577;28;20054;-86
2022/06/21 07:01:57;;;;;;;7.25;1.60;;;;;;;;;;4986400;28;20042;-86
2022/06/21 07:04:23;;;;;;;5.57;2.17;;;;;;;14.96;78.53;68435.53;4984753;28;20069;-86
2022/06/21 07:06:54;;;;;;;6.38;2.20;;;;;;;15.07;79.16;68448.63;4961195;28;20533;-86
2022/06/21 07:09:41;;;;;;;5.40;2.25;;;;;;;15.13;77.78;68454.88;4964773;28;20038;-86
2022/06/21 07:12:12;;;;;;;5.13;2.10;;;;;;;15.17;77.62;68462.13;4980104;28;20145;-87
2022/06/21 07:14:38;;;;;;;5.70;2.30;;;;;;;;;;4991064;28;20053;-86
2022/06/21 07:17:21;;;;;;;5.68;1.90;;;;;;;15.24;77.10;68467.41;4985863;28;20050;-86
2022/06/21 07:19:47;;;;;;;9.00;2.10;;;;;;;15.30;76.89;68473.69;4971940;28;20038;-86
2022/06/21 07:22:26;;;;;;;7.00;2.42;;;;;;;15.30;77.28;68473.69;4971250;28;20077;-86
2022/06/21 07:25:02;;;;;;;9.52;3.00;;;;;;;15.11;77.90;68447.25;4981958;28;20104;-86
2022/06/21 07:27:30;;;;;;;6.97;2.25;;;;;;;15.33;78.38;68477.69;4980545;28;20573;-87
2022/06/21 07:30:00;;;;;;;5.65;1.80;;;;;;;;;;5004010;28;20038;-86
2022/06/21 07:32:33;;;;;;;6.15;1.75;;;;;;;15.47;75.13;68493.06;4975808;28;20053;-86
2022/06/21 07:35:14;;;;;;;4.55;1.92;;;;;;;15.57;75.14;68498.53;5000364;28;20039;-86
2022/06/21 07:37:50;;;;;;;6.15;2.03;;;;;;;15.70;75.67;68518.72;4971665;28;20517;-86
2022/06/21 07:40:31;;;;;;;6.63;1.83;;;;;;;15.80;74.48;68521.50;4953272;28;20045;-86
2022/06/21 07:43:02;;;;;;;5.25;1.58;;;;;;;;;;4963577;28;20089;-86
2022/06/21 07:45:57;;;;;;;6.20;1.70;;;;;;;15.97;72.30;68548.34;4953140;28;20049;-86
2022/06/21 07:48:38;;;;;;;5.45;1.67;;;;;;;16.10;71.86;68562.59;4968049;28;20046;-86
2022/06/21 07:51:17;;;;;;;7.85;1.90;;;;;;;;;;4950231;28;20069;-87
2022/06/21 07:53:55;;;;;;;7.20;1.77;;;;;;;16.13;72.25;68561.22;4964548;28;20128;-86
2022/06/21 07:56:40;;;;;;;3.40;1.42;;;;;;;16.09;71.58;68561.47;4946273;28;20034;-86
2022/06/21 07:59:26;;;;;;;6.50;1.63;;;;;;;16.05;72.84;68556.88;4960031;28;20030;-86
2022/06/21 08:07:48;;;;;;;4.72;1.27;;;;;;;16.52;71.97;68604.53;4986183;28;20336;-86
2022/06/21 08:10:16;;;;;;;8.07;1.48;;;;;;;16.58;70.39;68610.81;4974651;28;20494;-86
2022/06/21 08:12:42;;;;;;;5.13;1.30;;;;;;;16.60;69.91;68610.97;4988092;28;20049;-86
2022/06/21 08:15:07;;;;;;;7.28;1.70;;;;;;;;;;4966524;28;20046;-86
2022/06/21 08:17:42;;;;;;;4.43;1.30;;;;;;;16.44;67.28;68595.97;4967359;28;20168;-86
2022/06/21 08:20:08;;;;;;;5.00;1.50;;;;;;;16.39;67.85;68590.28;4981999;28;20093;-87
2022/06/21 08:23:00;;;;;;;5.82;1.23;;;;;;;16.54;68.32;68606.22;4974165;28;20038;-86
2022/06/21 08:25:47;;;;;;;8.15;1.38;;;;;;;16.75;69.71;68629.63;4932245;28;20088;-86
2022/06/21 08:28:26;;;;;;;3.08;1.10;;;;;;;17.06;67.96;68665.00;4987115;28;20674;-86
2022/06/21 08:30:58;;;;;;;5.18;1.73;;;;;;;17.09;66.28;68667.84;4970671;28;20041;-86
2022/06/21 08:33:30;;;;;;;3.35;1.08;;;;;;;17.01;64.70;68664.09;4969980;28;20137;-86
2022/06/21 08:36:00;;;;;;;4.63;1.30;;;;;;;;;;4984756;28;20875;-86
2022/06/21 08:38:30;;;;;;;6.75;1.35;;;;;;;;;;4990274;28;20053;-87
2022/06/21 08:41:07;;;;;;;3.40;1.10;;;;;;;17.44;66.94;68712.03;4987204;28;20124;-87
2022/06/21 08:43:52;;;;;;;8.63;1.67;;;;;;;;;;4988948;28;20104;-87
2022/06/21 08:46:43;;;;;;;6.28;1.77;;;;;;;17.49;65.58;68718.28;4956356;28;20141;-87
2022/06/21 08:49:15;;;;;;;5.70;1.48;;;;;;;17.73;64.58;68739.16;4996348;28;20042;-87
2022/06/21 08:51:49;;;;;;;7.28;1.58;;;;;;;;;;4986326;28;20069;-87
2022/06/21 08:54:22;;;;;;;4.43;1.52;;;;;;;;;;4979846;28;20121;-87
2022/06/21 08:56:58;;;;;;;5.00;1.42;;;;;;;17.65;62.29;68738.66;4987608;28;20113;-86
2022/06/21 08:59:46;;;;;;;3.33;0.98;;;;;;;;;;4986988;28;20078;-87
2022/06/21 09:02:29;;;;;;;3.63;1.00;;;;;;;17.60;61.88;68725.44;5002663;28;20042;-86
2022/06/21 09:05:01;;;;;;;3.92;0.98;;;;;;;17.81;60.61;68748.88;4987269;28;20035;-87
2022/06/21 09:07:52;;;;;;;6.57;1.20;;;;;;;17.78;59.60;68745.47;4983563;28;20129;-87
2022/06/21 09:10:30;;;;;;;4.47;1.00;;;;;;;17.85;59.84;68757.69;4997239;28;20112;-87
2022/06/21 09:13:07;;;;;;;4.07;1.17;;;;;;;17.88;59.63;68755.72;4976834;28;20686;-87
2022/06/21 09:15:38;;;;;;;6.35;0.90;;;;;;;;;;4975383;28;20176;-87
2022/06/21 09:18:27;;;;;;;4.95;1.00;;;;;;;18.34;61.02;68807.66;4961966;28;20100;-87
2022/06/21 09:20:52;;;;;;;3.72;1.10;;;;;;;;;;4987238;28;20094;-86
2022/06/21 09:23:21;;;;;;;4.50;0.95;;;;;;;;;;4969185;28;20047;-86
2022/06/21 09:26:10;;;;;;;4.20;1.00;;;;;;;18.92;55.98;68872.19;4964070;28;20174;-86
2022/06/21 09:28:57;;;;;;;5.97;1.08;;;;;;;18.62;53.71;68838.50;4972489;28;20058;-86
2022/06/21 09:31:41;;;;;;;3.70;0.90;;;;;;;18.67;55.62;68842.09;4979343;28;20050;-86
2022/06/21 09:34:14;;;;;;;3.17;0.73;;;;;;;18.56;53.38;68831.63;4962594;28;20494;-86
2022/06/21 09:37:13;;;;;;;6.13;0.80;;;;;;;18.33;55.10;68805.97;4972438;28;20081;-86
2022/06/21 09:39:42;;;;;;;5.03;0.90;;;;;;;18.32;56.52;68799.41;4938766;28;20046;-87
2022/06/21 09:42:55;;;;;;;5.80;1.30;;;;;;;18.49;54.71;68821.50;4972738;28;20066;-86
2022/06/21 09:45:45;;;;;;;5.72;1.30;;;;;;;19.23;55.00;68907.03;4949739;28;20070;-87
2022/06/21 09:48:13;;;;;;;5.68;0.90;;;;;;;;;;4969631;28;20450;-87
2022/06/21 09:50:44;;;;;;;4.40;0.80;;;;;;;19.39;48.88;68924.75;4972406;28;20964;-86
2022/06/21 09:53:22;;;;;;;4.13;1.10;;;;;;;19.31;52.41;68921.03;4970063;28;20042;-86
2022/06/21 09:55:53;;;;;;;3.47;0.98;;;;;;;19.41;50.77;68927.03;4985725;28;20038;-86
2022/06/21 09:58:32;;;;;;;2.67;0.73;;;;;;;19.79;49.24;68969.91;5001394;28;20097;-87
2022/06/21 10:01:24;;;;;;;4.47;0.82;;;;;;;19.93;48.92;68985.34;4985473;28;20453;-86
2022/06/21 10:03:53;;;;;;;4.70;0.90;;;;;;;;;;4965470;28;20043;-87
2022/06/21 10:06:27;;;;;;;4.05;0.90;;;;;;;;;;4982908;28;20070;-86
2022/06/21 10:09:08;;;;;;;3.63;1.00;;;;;;;19.55;50.76;68943.03;4983980;28;20100;-86
2022/06/21 10:11:48;;;;;;;2.65;1.00;;;;;;;;;;5000978;28;20042;-86
2022/06/21 10:14:40;;;;;;;3.03;0.70;;;;;;;19.59;51.42;68947.63;4949759;28;20051;-87
2022/06/21 10:17:34;;;;;;;2.38;0.80;;;;;;;19.60;51.82;68948.75;4922674;28;20390;-87
2022/06/21 10:20:21;;;;;;;3.40;1.00;;;;;;;19.58;50.00;68946.47;4959834;28;20489;-87
2022/06/21 10:23:08;;;;;;;3.90;0.90;;;;;;;19.62;51.62;68950.44;4948765;28;20122;-86
2022/06/21 10:25:41;;;;;;;3.28;0.95;;;;;;;20.06;51.03;68999.63;4958844;28;20047;-86
2022/06/21 10:28:16;;;;;;;4.53;0.90;;;;;;;;;;4985516;28;20035;-87
2022/06/21 10:31:03;;;;;;;4.13;0.93;;;;;;;20.19;48.56;69019.31;4987985;28;20096;-87
2022/06/21 10:33:46;;;;;;;3.58;0.80;;;;;;;;;;5000148;28;20100;-86
2022/06/21 10:36:41;;;;;;;3.83;0.80;;;;;;;20.16;49.78;69011.06;4971149;28;20533;-86
2022/06/21 10:39:19;;;;;;;4.68;0.80;;;;;;;20.54;50.07;69052.81;4964979;28;20134;-85
2022/06/21 10:45:24;;;;;;;5.10;1.00;;;;;;;20.86;47.23;69089.44;4983326;28;20089;-87
2022/06/21 10:48:08;;;;;;;2.92;0.98;;;;;;;20.58;46.84;69057.41;4969094;28;20541;-86
2022/06/21 10:51:08;;;;;;;4.50;0.60;;;;;;;20.60;46.31;69059.66;4969394;28;20050;-86
2022/06/21 10:53:55;;;;;;;2.97;1.00;;;;;;;20.63;46.31;69063.09;4996926;28;20129;-86
2022/06/21 10:57:10;;;;;;;2.58;0.60;;;;;;;20.46;45.85;69041.53;4979636;28;20105;-88
2022/06/21 11:03:00;;;;;;;4.82;0.90;;;;;;;;;;4925808;28;20054;-86
2022/06/21 11:05:40;;;;;;;1.70;0.70;;;;;;;20.93;48.99;69094.16;4965738;28;20669;-87
2022/06/21 11:08:17;;;;;;;4.45;0.85;;;;;;;21.43;46.75;69152.34;4955011;28;20051;-87
2022/06/21 11:11:16;;;;;;;4.50;1.00;;;;;;;21.69;44.75;69186.97;4965401;28;20047;-86
2022/06/21 11:14:14;;;;;;;4.97;1.42;;;;;;;21.71;45.81;69184.41;4963550;28;20050;-87
2022/06/21 11:16:54;;;;;;;4.40;1.10;;;;;;;21.42;43.55;69151.22;4932850;28;20078;-87
2022/06/21 11:19:28;;;;;;;6.22;1.08;;;;;;;21.30;46.79;69138.59;4965991;28;20125;-87
2022/06/21 11:22:29;;;;;;;2.63;0.60;;;;;;;21.45;45.63;69154.66;4966460;28;20077;-88
2022/06/21 11:25:27;;;;;;;3.28;1.08;;;;;;;21.76;45.07;69184.72;4960028;28;20078;-88
2022/06/21 11:27:58;;;;;;;4.43;1.00;;;;;;;;;;4978869;28;20047;-88
2022/06/21 11:30:49;;;;;;;2.53;0.95;;;;;;;21.66;45.38;69178.69;4980603;28;20039;-89
2022/06/21 11:33:43;;;;;;;3.50;0.88;;;;;;;21.68;44.78;69180.41;4949786;28;20047;-88
2022/06/21 11:36:23;;;;;;;3.97;0.90;;;;;;;21.60;45.13;69172.38;4958278;28;20070;-88
2022/06/21 11:38:58;;;;;;;4.57;0.90;;;;;;;21.55;45.39;69166.69;4968985;28;20387;-87
2022/06/21 11:44:36;;;;;;;6.03;1.23;;;;;;;22.18;45.30;69233.78;4985991;28;20104;-88
2022/06/21 11:47:07;;;;;;;6.18;1.27;;;;;;;22.26;45.07;69242.97;4985467;28;20038;-88
2022/06/21 11:49:34;;;;;;;3.50;1.02;;;;;;;22.19;44.16;69234.94;4987589;28;20125;-89
2022/06/21 11:52:29;;;;;;;5.43;1.20;;;;;;;22.82;43.03;69308.09;4987796;28;20038;-89
2022/06/21 11:55:13;;;;;;;6.20;1.20;;;;;;;22.84;43.86;69307.66;4987657;28;20092;-90
2022/06/21 11:57:48;;;;;;;3.80;1.08;;;;;;;22.72;43.08;69295.06;4971474;28;20046;-89
2022/06/21 12:00:47;;;;;;;6.43;0.90;;;;;;;22.76;44.32;69307.22;4925703;28;20039;-89
2022/06/21 12:03:20;;;;;;;;;;;;;;;22.72;43.49;69292.34;4959214;28;20057;-89
2022/06/21 12:06:01;;;;;;;5.30;1.20;;;;;;;22.47;44.03;69269.72;4970631;28;19921;-89
2022/06/21 12:08:42;;;;;;;5.00;0.98;;;;;;;22.88;43.92;69315.53;4974134;28;20048;-88
2022/06/21 12:11:20;;;;;;;3.75;1.10;;;;;;;23.07;42.77;69331.31;4977294;28;20484;-89
2022/06/21 12:14:04;;;;;;;5.93;1.27;;;;;;;23.16;41.47;69344.34;4973896;28;20045;-89
2022/06/21 12:16:56;;;;;;;3.92;1.05;;;;;;;23.02;41.87;69328.31;4958773;28;20046;-89
2022/06/21 12:19:26;;;;;;;4.68;0.82;;;;;;;22.93;42.06;69315.25;4988537;28;20046;-89
2022/06/21 12:22:11;;;;;;;3.53;1.10;;;;;;;22.94;41.26;69319.13;4991558;28;20101;-88
2022/06/21 12:24:38;;;;;;;2.70;0.75;;;;;;;22.69;42.33;69293.75;4959702;28;20113;-88
2022/06/21 12:27:10;;;;;;;4.65;1.10;;;;;;;22.67;43.48;69292.06;4973271;28;20390;-88
2022/06/21 12:29:36;;;;;;;4.38;1.00;;;;;;;22.54;42.02;69282.59;4973634;28;20112;-88
2022/06/21 12:32:05;;;;;;;5.40;1.45;;;;;;;22.47;41.41;69269.13;4988806;28;20557;-89
2022/06/21 12:34:39;;;;;;;5.07;1.15;;;;;;;22.51;42.15;69273.72;4958362;28;20047;-88
2022/06/21 12:37:08;;;;;;;3.20;0.95;;;;;;;22.33;43.27;69250.38;4951835;28;20046;-88
2022/06/21 12:40:03;;;;;;;4.90;1.42;;;;;;;22.06;41.93;69221.19;4982230;28;20675;-88
2022/06/21 12:42:46;;;;;;;4.55;1.13;;;;;;;21.77;42.33;69188.00;4953950;28;20053;-89
2022/06/21 12:45:20;;;;;;;3.90;0.98;;;;;;;22.03;43.34;69220.44;4971793;28;20043;-88
2022/06/21 12:48:19;;;;;;;4.70;1.05;;;;;;;22.26;42.27;69245.66;4988194;28;20098;-89
2022/06/21 12:51:11;;;;;;;3.60;1.00;;;;;;;22.47;42.44;69267.00;4971555;28;20142;-88
2022/06/21 12:54:11;;;;;;;3.63;1.05;;;;;;;22.48;42.28;69267.59;4986737;28;20043;-89
2022/06/21 12:56:58;;;;;;;5.95;1.27;;;;;;;22.40;42.22;69261.69;4970133;28;20126;-89
2022/06/21 12:59:55;;;;;;;4.45;1.08;;;;;;;21.99;41.25;69215.31;4974408;28;20122;-89